Lavoy, Canada
Current Conditions -  °F | °C
As of 5:00 AM on Monday 24 Nov 2014 (Local Time) from CYED Reporting Station
Overcast Overcast  
Wind Chill: 23°   Ceiling: 7900
Heat Index: 32°   Visibility: 9mi
Dew Point: 27°   Wind: 12mph
Humidity: 80%   Direction: 280°W
Pressure: 29.86"   Gusts: NA
Location:  53.47°N, 111.87°W
Report Text: CYED 241200Z AUTO 28010KT 9SM FEW071 OVC079 00/M03 A2986 RMKSLP149
Loading
Personal Weather Stations






























Interactive Weather Map New forecast layout! Learn more

10-Day Weather Forecast

Advertisements
Track Severe Weather on mobile